Time;durP1;ratioP1;P1;durP2;ratioP2;P2;SDS_P1;SDS_P2;PMS_P1;PMS_P2;Temp;Humidity;BMP_temperature;BMP_pressure;BME280_temperature;BME280_humidity;BME280_pressure;Samples;Min_cycle;Max_cycle;Signal;HPM_P1;HPM_P2
2023/05/22 00:01:41;;;;;;;5.55;2.22;;;;;;;19.52;60.34;101198.06;4993207;28;20109;-52
2023/05/22 00:04:07;;;;;;;4.97;2.50;;;;;;;19.41;60.26;101199.03;4993190;28;20106;-50
2023/05/22 00:06:34;;;;;;;7.70;2.88;;;;;;;18.64;62.61;101208.94;5000146;28;20394;-46
2023/05/22 00:09:00;;;;;;;7.43;3.30;;;;;;;18.37;63.83;101206.09;4996883;28;20030;-49
2023/05/22 00:11:26;;;;;;;6.25;2.70;;;;;;;18.70;62.34;101205.25;4993166;28;20055;-49
2023/05/22 00:13:52;;;;;;;10.10;3.78;;;;;;;18.33;64.12;101198.75;4997907;28;20030;-49
2023/05/22 00:16:19;;;;;;;8.75;3.85;;;;;;;18.85;63.92;101201.91;4993060;28;20054;-53
2023/05/22 00:18:45;;;;;;;10.35;3.70;;;;;;;18.92;63.04;101193.59;4993331;28;20479;-44
2023/05/22 00:21:11;;;;;;;9.82;4.05;;;;;;;18.82;62.86;101198.88;4993278;28;20022;-45
2023/05/22 00:23:37;;;;;;;16.58;5.25;;;;;;;18.80;62.93;101190.19;5002085;28;20121;-46
2023/05/22 00:26:04;;;;;;;13.43;4.70;;;;;;;18.61;64.16;101195.91;4995961;28;20501;-44
2023/05/22 00:28:30;;;;;;;18.25;4.68;;;;;;;18.63;63.87;101191.03;4993380;28;20027;-46
2023/05/22 00:30:56;;;;;;;17.40;5.15;;;;;;;18.82;63.69;101197.03;4993189;28;20018;-45
2023/05/22 00:33:23;;;;;;;24.02;5.35;;;;;;;18.54;63.21;101186.28;4993249;28;20028;-45
2023/05/22 00:35:49;;;;;;;15.43;4.57;;;;;;;18.64;63.75;101189.13;4993062;28;20495;-44
2023/05/22 00:38:36;;;;;;;30.10;5.82;;;;;;;17.94;64.85;101191.38;4992295;28;20034;-46
2023/05/22 00:41:04;;;;;;;24.88;6.18;;;;;;;17.90;66.09;101194.81;4993657;28;20030;-46
2023/05/22 00:43:31;;;;;;;26.50;6.50;;;;;;;17.74;66.34;101201.06;4996486;28;20025;-47
2023/05/22 00:45:57;;;;;;;24.35;6.50;;;;;;;17.72;65.79;101190.47;4992903;28;20463;-44
2023/05/22 00:48:24;;;;;;;23.13;6.35;;;;;;;17.90;66.09;101198.34;4993020;28;20431;-48
2023/05/22 00:50:52;;;;;;;26.90;6.57;;;;;;;17.76;65.80;101210.56;4992794;28;20088;-47
2023/05/22 00:53:20;;;;;;;30.25;6.95;;;;;;;17.81;66.58;101197.09;4992882;28;20030;-47
2023/05/22 00:55:47;;;;;;;26.98;7.22;;;;;;;18.08;65.21;101196.47;4992532;28;20022;-46
2023/05/22 00:58:16;;;;;;;22.52;6.13;;;;;;;17.93;65.70;101202.44;4993070;28;20030;-44
2023/05/22 01:00:44;;;;;;;28.45;7.10;;;;;;;17.77;65.22;101200.56;4992548;28;20430;-44
2023/05/22 01:03:10;;;;;;;25.35;6.78;;;;;;;17.93;64.98;101206.00;4992957;28;20068;-46
2023/05/22 01:05:38;;;;;;;28.98;6.40;;;;;;;17.69;65.50;101207.97;4992536;28;20030;-45
2023/05/22 01:08:08;;;;;;;28.25;5.85;;;;;;;17.70;64.52;101208.81;4992761;28;20029;-43
2023/05/22 01:10:36;;;;;;;29.08;5.95;;;;;;;17.56;65.17;101202.88;4992535;28;20023;-47
2023/05/22 01:13:20;;;;;;;31.30;6.57;;;;;;;17.83;64.36;101207.72;4992437;28;20045;-47
2023/05/22 01:16:00;;;;;;;24.45;6.15;;;;;;;17.76;64.95;101199.72;4992288;28;20041;-44
2023/05/22 01:18:34;;;;;;;26.80;6.35;;;;;;;17.41;65.64;101186.38;4992226;28;20033;-45
2023/05/22 01:21:09;;;;;;;32.65;6.70;;;;;;;17.62;65.28;101190.25;4992621;28;20566;-48
2023/05/22 01:24:02;;;;;;;25.10;6.43;;;;;;;17.47;65.22;101185.38;4991954;28;20047;-45
2023/05/22 01:26:52;;;;;;;32.08;7.68;;;;;;;17.71;66.11;101186.06;4993144;28;20031;-45
2023/05/22 01:29:44;;;;;;;24.77;6.30;;;;;;;17.81;64.60;101185.47;5011789;28;20112;-44
2023/05/22 01:32:15;;;;;;;25.20;6.10;;;;;;;18.02;63.93;101184.72;5010529;28;20022;-45
2023/05/22 01:34:45;;;;;;;21.90;5.75;;;;;;;18.15;63.38;101180.84;5011971;28;20026;-45
2023/05/22 01:37:13;;;;;;;25.80;6.57;;;;;;;18.08;63.92;101181.03;5011239;28;20470;-48
2023/05/22 01:39:40;;;;;;;26.33;6.28;;;;;;;18.17;63.52;101184.16;5011683;28;20026;-46
2023/05/22 01:42:07;;;;;;;30.48;6.40;;;;;;;18.31;63.44;101179.19;5011499;28;20034;-45
2023/05/22 01:44:33;;;;;;;24.40;5.80;;;;;;;18.03;63.70;101183.66;5011810;28;20037;-45
2023/05/22 01:47:03;;;;;;;29.88;7.13;;;;;;;18.30;62.92;101182.97;5011158;28;20033;-46
2023/05/22 01:49:32;;;;;;;20.92;6.78;;;;;;;18.52;62.28;101177.59;5013255;28;20022;-46
2023/05/22 01:52:12;;;;;;;28.38;7.03;;;;;;;18.39;62.57;101165.22;5008320;28;20406;-44
2023/05/22 01:54:49;;;;;;;22.38;6.50;;;;;;;18.36;62.77;101171.13;5010857;28;20112;-47
2023/05/22 01:57:26;;;;;;;27.85;6.72;;;;;;;18.15;62.57;101167.31;5014996;28;20022;-45
2023/05/22 02:00:06;;;;;;;30.15;6.63;;;;;;;18.36;62.90;101165.72;5015414;28;20501;-44
2023/05/22 02:02:35;;;;;;;22.08;6.72;;;;;;;18.72;61.48;101173.28;5015173;28;20048;-45
2023/05/22 02:05:04;;;;;;;22.00;5.78;;;;;;;19.03;60.31;101173.66;5014878;28;20032;-48
2023/05/22 02:07:33;;;;;;;25.23;6.80;;;;;;;19.05;59.99;101165.28;5003143;28;20396;-47
2023/05/22 02:10:01;;;;;;;26.67;6.32;;;;;;;18.96;59.85;101165.72;4996137;28;20026;-47
2023/05/22 02:12:28;;;;;;;28.00;7.15;;;;;;;18.84;59.62;101166.94;4995447;28;20061;-44
2023/05/22 02:14:54;;;;;;;26.80;6.20;;;;;;;19.29;59.30;101163.06;4995170;28;20084;-48
2023/05/22 02:17:21;;;;;;;28.55;6.70;;;;;;;19.53;58.38;101157.06;4995382;28;20022;-45
2023/05/22 02:19:47;;;;;;;28.88;7.15;;;;;;;19.08;58.81;101167.47;4995202;28;20042;-47
2023/05/22 02:22:13;;;;;;;22.80;6.57;;;;;;;19.41;57.98;101174.59;4995171;28;20241;-46
2023/05/22 02:24:42;;;;;;;27.52;7.03;;;;;;;19.14;58.70;101174.59;4995355;28;20031;-44
2023/05/22 02:27:08;;;;;;;27.75;6.60;;;;;;;19.26;58.38;101169.81;4995114;28;20061;-44
2023/05/22 02:29:35;;;;;;;29.67;7.22;;;;;;;19.04;58.81;101169.84;4995195;28;20037;-47
2023/05/22 02:32:01;;;;;;;25.50;6.70;;;;;;;19.35;57.79;101179.16;4995126;28;20027;-46
2023/05/22 02:34:28;;;;;;;34.00;7.18;;;;;;;18.80;58.65;101173.91;4994887;28;20029;-46
2023/05/22 02:36:55;;;;;;;29.45;7.57;;;;;;;18.40;60.13;101164.97;4994744;28;20054;-43
2023/05/22 02:39:21;;;;;;;25.65;6.53;;;;;;;18.04;60.80;101171.75;4994927;28;20034;-48
2023/05/22 02:41:47;;;;;;;28.10;7.50;;;;;;;18.00;61.32;101173.34;4995416;28;20466;-45
2023/05/22 02:44:13;;;;;;;31.00;7.82;;;;;;;17.87;61.96;101184.47;5001808;28;20105;-44
2023/05/22 02:46:40;;;;;;;29.30;6.85;;;;;;;17.75;62.00;101195.38;4994734;28;20034;-45
2023/05/22 02:49:06;;;;;;;37.50;7.80;;;;;;;17.67;62.99;101202.00;5000367;28;20092;-48
2023/05/22 02:51:32;;;;;;;30.00;6.78;;;;;;;17.58;63.33;101202.63;4995260;28;20026;-45
2023/05/22 02:53:58;;;;;;;27.58;7.53;;;;;;;17.51;63.45;101207.38;5012141;28;20384;-46
2023/05/22 02:56:27;;;;;;;31.17;7.88;;;;;;;16.96;64.99;101200.66;5010775;28;20030;-48
2023/05/22 02:58:55;;;;;;;25.23;7.35;;;;;;;16.65;66.35;101199.16;4999255;28;20058;-47
2023/05/22 03:01:21;;;;;;;32.97;8.40;;;;;;;16.57;66.77;101194.13;4998428;28;20028;-45
2023/05/22 03:03:47;;;;;;;32.38;7.47;;;;;;;16.31;67.86;101198.94;5014095;28;20029;-46
2023/05/22 03:06:14;;;;;;;36.95;8.75;;;;;;;15.89;69.98;101194.72;5013609;28;20121;-46
2023/05/22 03:08:43;;;;;;;29.67;7.65;;;;;;;15.66;70.47;101190.91;5012758;28;20022;-49
2023/05/22 03:11:10;;;;;;;36.28;8.88;;;;;;;15.48;71.24;101191.75;5002427;28;20034;-45
2023/05/22 03:13:36;;;;;;;35.03;8.52;;;;;;;15.48;71.57;101191.75;5004243;28;20116;-44
2023/05/22 03:16:02;;;;;;;34.63;8.60;;;;;;;15.38;72.03;101187.94;5005268;28;20038;-48
2023/05/22 03:18:29;;;;;;;44.97;9.85;;;;;;;15.38;72.46;101182.56;4993954;28;20026;-46
2023/05/22 03:20:55;;;;;;;40.58;9.40;;;;;;;15.10;73.10;101193.94;4994347;28;20061;-46
2023/05/22 03:23:21;;;;;;;41.92;8.90;;;;;;;14.99;74.26;101195.53;4993769;28;20105;-48
2023/05/22 03:25:47;;;;;;;36.20;8.85;;;;;;;14.87;74.96;101200.03;4993919;28;20121;-46
2023/05/22 03:28:14;;;;;;;36.50;8.77;;;;;;;14.90;75.03;101196.91;5014867;28;20056;-47
2023/05/22 03:30:40;;;;;;;36.70;8.40;;;;;;;14.99;74.39;101203.59;5033335;28;20021;-48
2023/05/22 03:33:07;;;;;;;38.78;8.13;;;;;;;14.91;74.60;101195.84;5014868;28;20033;-44
2023/05/22 03:35:33;;;;;;;41.22;9.35;;;;;;;14.84;75.10;101204.00;5013271;28;20045;-47
2023/05/22 03:37:59;;;;;;;40.03;9.23;;;;;;;14.86;75.24;101214.56;5013419;28;20026;-46
2023/05/22 03:40:25;;;;;;;32.70;8.30;;;;;;;14.76;75.79;101215.91;4996694;28;20038;-44
2023/05/22 03:42:52;;;;;;;33.15;7.82;;;;;;;14.83;75.73;101223.09;4993842;28;20395;-47
2023/05/22 03:45:18;;;;;;;43.40;8.98;;;;;;;14.70;76.30;101226.75;4993621;28;20419;-47
2023/05/22 03:47:44;;;;;;;40.13;10.15;;;;;;;14.68;76.21;101224.28;4993855;28;20053;-45
2023/05/22 03:50:10;;;;;;;34.97;9.20;;;;;;;14.64;76.49;101208.78;4994393;28;20406;-45
2023/05/22 03:52:37;;;;;;;40.05;9.63;;;;;;;14.59;76.52;101206.75;4993705;28;20113;-48
2023/05/22 03:55:04;;;;;;;37.95;9.88;;;;;;;14.43;77.39;101205.44;4993563;28;20037;-46
2023/05/22 03:57:31;;;;;;;49.20;11.35;;;;;;;14.37;77.07;101213.59;4976185;28;20023;-46
2023/05/22 04:00:04;;;;;;;39.90;9.38;;;;;;;14.39;76.76;101220.41;4993288;28;20092;-46
2023/05/22 04:02:31;;;;;;;37.88;9.50;;;;;;;14.38;76.69;101210.69;4993449;28;20046;-45
2023/05/22 04:04:57;;;;;;;45.00;10.13;;;;;;;14.14;77.68;101214.22;5017097;28;20079;-47
2023/05/22 04:07:23;;;;;;;45.70;9.63;;;;;;;14.00;78.76;101213.50;4995251;28;20365;-49
2023/05/22 04:09:49;;;;;;;46.85;11.00;;;;;;;13.97;78.75;101214.75;5012762;28;20029;-48
2023/05/22 04:12:16;;;;;;;39.60;9.50;;;;;;;13.81;79.78;101219.84;5011974;28;20117;-48
2023/05/22 04:14:42;;;;;;;46.28;10.20;;;;;;;13.94;79.18;101214.38;5012518;28;20022;-47
2023/05/22 04:17:10;;;;;;;51.00;10.40;;;;;;;13.74;80.29;101211.84;5012783;28;20021;-49
2023/05/22 04:19:36;;;;;;;46.17;10.32;;;;;;;13.91;79.87;101210.25;5012372;28;20114;-49
2023/05/22 04:22:02;;;;;;;50.58;10.35;;;;;;;13.85;79.66;101216.50;5011886;28;20128;-47
2023/05/22 04:24:29;;;;;;;54.33;10.10;;;;;;;13.85;79.86;101216.50;5012404;28;20041;-50
2023/05/22 04:26:58;;;;;;;39.45;10.13;;;;;;;13.78;80.26;101225.69;5012507;28;20480;-47
2023/05/22 04:29:25;;;;;;;45.45;9.75;;;;;;;13.72;80.51;101224.69;5012489;28;20466;-48
2023/05/22 04:31:53;;;;;;;41.72;10.00;;;;;;;13.61;81.06;101230.75;5012840;28;20426;-48
2023/05/22 04:34:20;;;;;;;37.85;9.13;;;;;;;13.67;80.87;101235.28;5012000;28;20030;-45
2023/05/22 04:36:47;;;;;;;46.90;11.07;;;;;;;13.69;80.60;101230.50;5012233;28;20541;-48
2023/05/22 04:39:14;;;;;;;44.75;9.70;;;;;;;13.67;80.85;101222.66;5010732;28;20033;-46
2023/05/22 04:41:40;;;;;;;47.35;9.77;;;;;;;13.56;81.10;101228.72;4992869;28;20036;-49
2023/05/22 04:44:07;;;;;;;46.97;10.77;;;;;;;13.54;80.99;101229.97;4992452;28;20476;-49
2023/05/22 04:46:34;;;;;;;41.15;10.00;;;;;;;13.57;80.91;101226.84;4992428;28;20034;-48
2023/05/22 04:49:00;;;;;;;56.85;12.25;;;;;;;13.56;80.88;101227.91;4992627;28;20034;-49
2023/05/22 04:51:28;;;;;;;47.28;10.30;;;;;;;13.46;81.49;101222.97;4992558;28;20041;-47
2023/05/22 04:53:54;;;;;;;41.55;9.70;;;;;;;13.47;80.98;101222.75;4992677;28;20026;-49
2023/05/22 04:56:22;;;;;;;47.35;10.95;;;;;;;13.33;81.72;101223.06;4992979;28;20136;-48
2023/05/22 04:58:49;;;;;;;51.92;11.90;;;;;;;13.20;82.45;101215.84;4992323;28;20034;-48
2023/05/22 05:01:15;;;;;;;58.10;11.63;;;;;;;13.32;82.07;101221.38;4992170;28;20109;-47
2023/05/22 05:03:43;;;;;;;44.28;11.82;;;;;;;13.27;82.27;101222.06;5003851;28;20151;-47
2023/05/22 05:06:11;;;;;;;46.50;11.32;;;;;;;13.25;82.79;101234.88;4992063;28;20065;-49
2023/05/22 05:08:37;;;;;;;41.88;11.00;;;;;;;13.28;82.49;101245.22;4992968;28;20025;-46
2023/05/22 05:11:04;;;;;;;38.30;9.65;;;;;;;13.36;82.21;101247.63;5011627;28;20032;-48
2023/05/22 05:13:30;;;;;;;50.08;10.45;;;;;;;13.31;82.51;101234.00;5011180;28;20058;-49
2023/05/22 05:15:58;;;;;;;44.72;10.73;;;;;;;13.31;82.82;101236.69;5011615;28;20021;-45
2023/05/22 05:18:26;;;;;;;52.75;12.48;;;;;;;13.35;82.68;101237.94;5012156;28;20034;-49
2023/05/22 05:20:53;;;;;;;45.20;11.63;;;;;;;13.37;82.97;101245.75;5011901;28;20125;-45
2023/05/22 05:23:19;;;;;;;44.20;9.90;;;;;;;13.44;82.58;101230.44;5012885;28;20042;-46
2023/05/22 05:25:46;;;;;;;44.78;9.77;;;;;;;13.44;82.64;101231.28;5015516;28;20449;-45
2023/05/22 05:28:12;;;;;;;44.65;10.75;;;;;;;13.42;82.57;101219.88;5015904;28;20057;-47
2023/05/22 05:30:39;;;;;;;46.63;12.25;;;;;;;13.27;83.19;101230.13;5014851;28;20470;-45
2023/05/22 05:33:06;;;;;;;48.28;11.07;;;;;;;13.34;82.98;101230.09;5015853;28;20320;-45
2023/05/22 05:35:32;;;;;;;46.58;11.40;;;;;;;13.35;82.94;101221.78;5015487;28;20421;-45
2023/05/22 05:37:58;;;;;;;56.00;11.73;;;;;;;13.38;82.84;101225.91;5015574;28;20037;-46
2023/05/22 05:40:25;;;;;;;44.65;10.27;;;;;;;13.34;82.89;101230.09;5015612;28;20030;-45
2023/05/22 05:42:51;;;;;;;47.80;11.48;;;;;;;13.29;83.27;101221.84;5015431;28;20026;-46
2023/05/22 05:45:17;;;;;;;49.53;11.65;;;;;;;13.31;83.14;101230.50;5015661;28;20112;-45
2023/05/22 05:47:44;;;;;;;45.60;11.30;;;;;;;13.20;83.83;101229.28;5014697;28;20026;-47
2023/05/22 05:50:11;;;;;;;44.67;11.20;;;;;;;13.19;83.73;101217.69;5015728;28;20137;-45
2023/05/22 05:52:37;;;;;;;46.30;10.77;;;;;;;13.25;83.51;101218.75;5015243;28;20043;-45
2023/05/22 05:55:04;;;;;;;40.78;11.02;;;;;;;13.28;83.48;101226.38;5015216;28;20049;-45
2023/05/22 05:57:30;;;;;;;43.50;9.85;;;;;;;13.08;84.46;101222.91;5015542;28;20061;-46
2023/05/22 05:59:56;;;;;;;50.25;10.05;;;;;;;13.14;84.39;101219.38;5014974;28;20039;-45
2023/05/22 06:02:23;;;;;;;51.83;12.50;;;;;;;13.04;84.77;101227.88;5014987;28;20033;-44
2023/05/22 06:04:49;;;;;;;53.28;11.55;;;;;;;12.98;84.99;101214.47;5004349;28;20019;-47
2023/05/22 06:07:16;;;;;;;47.30;11.70;;;;;;;13.09;84.34;101221.88;4995334;28;20119;-45
2023/05/22 06:09:42;;;;;;;52.72;12.32;;;;;;;12.97;84.95;101216.34;5004624;28;20061;-45
2023/05/22 06:12:11;;;;;;;51.75;11.75;;;;;;;13.04;84.19;101219.00;5015086;28;20049;-45
2023/05/22 06:14:41;;;;;;;47.80;11.45;;;;;;;13.02;83.96;101219.22;5014596;28;20530;-46
2023/05/22 06:17:10;;;;;;;50.35;12.23;;;;;;;12.93;84.57;101213.25;5015113;28;20026;-45
2023/05/22 06:19:36;;;;;;;44.40;10.82;;;;;;;12.91;84.86;101218.03;5015287;28;20061;-45
2023/05/22 06:22:02;;;;;;;59.53;11.52;;;;;;;12.79;85.41;101216.22;5013969;28;20046;-46
2023/05/22 06:24:31;;;;;;;48.05;12.65;;;;;;;12.70;85.59;101215.59;5014496;28;20029;-45
2023/05/22 06:26:57;;;;;;;46.40;12.02;;;;;;;12.77;84.92;101213.75;5014389;28;20029;-47
2023/05/22 06:29:23;;;;;;;55.03;12.68;;;;;;;12.80;84.86;101204.44;5021393;23;20050;-45
2023/05/22 06:31:50;;;;;;;65.28;14.95;;;;;;;12.57;86.01;101208.41;5014710;28;20467;-46
2023/05/22 06:34:16;;;;;;;68.13;14.75;;;;;;;12.59;86.10;101202.81;5014009;28;20482;-46
2023/05/22 06:36:44;;;;;;;58.65;12.85;;;;;;;12.51;86.59;101206.56;5014362;28;20056;-46
2023/05/22 06:39:10;;;;;;;53.58;13.93;;;;;;;12.48;86.97;101212.34;5014333;28;20034;-46
2023/05/22 06:41:37;;;;;;;61.42;13.88;;;;;;;12.51;87.27;101205.75;5014516;28;20033;-46
2023/05/22 06:44:05;;;;;;;53.50;12.75;;;;;;;12.49;87.48;101192.50;5014675;28;20080;-46
2023/05/22 06:46:31;;;;;;;53.58;13.25;;;;;;;12.38;87.75;101207.44;5013986;28;20101;-47
2023/05/22 06:48:57;;;;;;;56.13;12.50;;;;;;;12.50;87.26;101206.78;5014446;28;20065;-45
2023/05/22 06:51:24;;;;;;;48.95;13.32;;;;;;;12.57;87.13;101212.97;5014521;28;20058;-47
2023/05/22 06:53:50;;;;;;;61.97;12.75;;;;;;;12.60;86.59;101205.31;5014310;28;20030;-47
2023/05/22 06:56:17;;;;;;;62.42;13.45;;;;;;;12.59;86.73;101209.00;5013982;28;20109;-47
2023/05/22 06:58:44;;;;;;;70.75;14.38;;;;;;;12.64;86.33;101203.03;5014416;28;20055;-49
2023/05/22 07:01:10;;;;;;;51.08;12.45;;;;;;;12.62;86.49;101200.56;5014208;28;20026;-46
2023/05/22 07:03:36;;;;;;;49.92;13.13;;;;;;;12.61;86.20;101209.66;5012919;28;20451;-46
2023/05/22 07:06:03;;;;;;;48.70;12.95;;;;;;;12.63;85.94;101204.06;4994240;28;20036;-46
2023/05/22 07:08:29;;;;;;;63.95;13.43;;;;;;;12.61;86.16;101203.47;4994194;28;20030;-50
2023/05/22 07:10:55;;;;;;;53.05;12.63;;;;;;;12.53;86.79;101206.34;5013713;28;20022;-51
2023/05/22 07:13:23;;;;;;;54.30;12.20;;;;;;;12.64;85.63;101205.72;5013065;28;20115;-48
2023/05/22 07:15:50;;;;;;;58.90;13.15;;;;;;;12.53;86.23;101212.53;5013878;28;20034;-50
2023/05/22 07:18:16;;;;;;;56.85;13.80;;;;;;;12.48;86.61;101211.53;5013913;28;20061;-46
2023/05/22 07:20:43;;;;;;;51.78;13.48;;;;;;;12.52;86.64;101218.94;5013952;28;20474;-45
2023/05/22 07:23:09;;;;;;;52.65;13.23;;;;;;;12.40;86.56;101210.72;5013831;28;20559;-49
2023/05/22 07:25:35;;;;;;;60.63;14.10;;;;;;;12.42;86.69;101211.31;5013451;28;20482;-46
2023/05/22 07:28:07;;;;;;;60.60;14.27;;;;;;;12.34;87.23;101206.19;5013484;28;20487;-46
2023/05/22 07:30:36;;;;;;;51.42;13.32;;;;;;;12.32;87.18;101207.41;5012747;28;20474;-45
2023/05/22 07:33:02;;;;;;;62.00;13.90;;;;;;;12.24;87.39;101213.00;5013705;28;20116;-50
2023/05/22 07:35:28;;;;;;;62.72;12.75;;;;;;;12.28;87.36;101209.72;5013325;28;20029;-46
2023/05/22 07:37:54;;;;;;;63.25;13.75;;;;;;;12.13;88.36;101201.88;5013438;28;20022;-46
2023/05/22 07:40:21;;;;;;;59.17;14.18;;;;;;;12.14;88.08;101200.81;5013241;28;20394;-46
2023/05/22 07:42:47;;;;;;;68.88;13.48;;;;;;;12.06;88.32;101194.88;5013590;28;20068;-48
2023/05/22 07:45:13;;;;;;;61.60;13.93;;;;;;;12.02;88.13;101196.28;5013243;28;20072;-46
2023/05/22 07:47:39;;;;;;;63.60;14.82;;;;;;;12.15;87.63;101198.97;5011666;28;20025;-49
2023/05/22 07:50:06;;;;;;;56.05;13.60;;;;;;;12.07;88.01;101193.81;5013393;28;20113;-45
2023/05/22 07:52:33;;;;;;;61.92;14.00;;;;;;;12.05;88.36;101185.16;5012973;28;20026;-49
2023/05/22 07:54:59;;;;;;;62.65;14.50;;;;;;;11.96;88.88;101181.03;5013285;28;20470;-47
2023/05/22 07:57:26;;;;;;;57.10;14.85;;;;;;;11.95;88.87;101176.69;5013001;28;20033;-46
2023/05/22 07:59:52;;;;;;;58.28;14.88;;;;;;;11.98;88.67;101184.31;5012955;28;20533;-49
2023/05/22 08:02:18;;;;;;;65.88;14.10;;;;;;;11.97;88.79;101177.31;5012339;28;20482;-46
2023/05/22 08:04:44;;;;;;;49.78;14.02;;;;;;;11.86;89.18;101179.56;5008782;28;20034;-50
2023/05/22 08:07:11;;;;;;;64.95;15.55;;;;;;;12.01;88.56;101170.50;5013042;28;20030;-44
2023/05/22 08:09:37;;;;;;;57.90;13.73;;;;;;;12.05;88.41;101177.13;5012489;28;20376;-49
2023/05/22 08:12:04;;;;;;;65.57;13.38;;;;;;;12.09;88.02;101175.66;5012935;28;20455;-49
2023/05/22 08:14:30;;;;;;;58.20;13.65;;;;;;;12.09;87.77;101189.88;5012451;28;20040;-49
2023/05/22 08:16:57;;;;;;;46.97;12.07;;;;;;;12.08;88.07;101182.06;5012944;28;20479;-48
2023/05/22 08:19:24;;;;;;;50.03;12.85;;;;;;;12.12;87.91;101178.75;5012572;28;20042;-50
2023/05/22 08:21:56;;;;;;;53.35;13.90;;;;;;;12.22;88.05;101181.03;5011916;28;20121;-46
2023/05/22 08:24:27;;;;;;;51.88;12.80;;;;;;;12.30;87.49;101180.78;5012334;28;20018;-50
2023/05/22 08:26:54;;;;;;;69.55;15.82;;;;;;;12.17;87.85;101183.50;5012585;28;20060;-46
2023/05/22 08:29:21;;;;;;;65.93;13.95;;;;;;;12.27;87.76;101191.09;5012366;28;20052;-46
2023/05/22 08:31:47;;;;;;;60.28;14.02;;;;;;;12.23;87.85;101189.91;5012418;28;20022;-48
2023/05/22 08:34:13;;;;;;;49.97;13.95;;;;;;;12.30;87.52;101191.53;5012267;28;20018;-46
2023/05/22 08:36:40;;;;;;;59.75;13.95;;;;;;;12.32;87.69;101188.63;5012494;28;20109;-50
2023/05/22 08:39:07;;;;;;;59.53;14.05;;;;;;;12.37;87.44;101188.81;5011368;28;20033;-46
2023/05/22 08:41:34;;;;;;;66.75;14.63;;;;;;;12.32;87.36;101184.06;5012397;28;20490;-47
2023/05/22 08:44:00;;;;;;;50.28;12.73;;;;;;;12.33;87.04;101185.75;5012276;28;20057;-46
2023/05/22 08:46:28;;;;;;;55.05;13.02;;;;;;;12.27;87.63;101183.91;5012322;28;20026;-50
2023/05/22 08:48:57;;;;;;;72.70;15.85;;;;;;;12.18;88.08;101187.81;5012122;28;20482;-45
2023/05/22 08:51:28;;;;;;;59.17;13.13;;;;;;;12.25;88.21;101193.19;5012331;28;20099;-50
2023/05/22 08:53:58;;;;;;;49.65;13.68;;;;;;;12.29;87.98;101197.94;5011706;28;20026;-48
2023/05/22 08:56:25;;;;;;;54.80;13.48;;;;;;;12.28;87.80;101193.59;4992102;28;20073;-46
2023/05/22 08:58:52;;;;;;;58.80;14.02;;;;;;;12.33;87.45;101196.50;4991676;28;20034;-49
2023/05/22 09:01:18;;;;;;;72.75;14.55;;;;;;;12.28;87.90;101193.59;4992463;28;20081;-48
2023/05/22 09:03:48;;;;;;;57.95;13.77;;;;;;;12.20;88.06;101191.13;4994380;28;20026;-47
2023/05/22 09:06:17;;;;;;;53.10;13.05;;;;;;;12.23;87.71;101193.41;5011960;28;20054;-46
2023/05/22 09:08:43;;;;;;;58.35;15.25;;;;;;;12.05;88.60;101190.53;4997222;28;20061;-50
2023/05/22 09:11:11;;;;;;;56.90;13.68;;;;;;;12.06;88.54;101193.00;5029038;28;20053;-47
2023/05/22 09:13:39;;;;;;;62.33;14.20;;;;;;;12.19;87.90;101196.69;5006125;28;20064;-46
2023/05/22 09:16:13;;;;;;;57.13;13.95;;;;;;;12.24;87.86;101184.31;5031526;28;20021;-46
2023/05/22 09:18:41;;;;;;;52.45;13.95;;;;;;;12.24;88.12;101191.53;5031754;28;20040;-47
2023/05/22 09:21:09;;;;;;;53.10;13.13;;;;;;;12.11;89.13;101181.66;5031648;28;20065;-48
2023/05/22 09:23:36;;;;;;;59.05;14.48;;;;;;;12.04;89.89;101181.63;5031544;28;20032;-49
2023/05/22 09:26:03;;;;;;;57.65;14.38;;;;;;;12.13;89.30;101190.31;5025333;28;20025;-47
2023/05/22 09:28:35;;;;;;;49.08;11.90;;;;;;;12.10;89.71;101180.81;5022814;28;20057;-49
2023/05/22 09:31:02;;;;;;;55.20;14.45;;;;;;;12.03;90.17;101171.13;4992341;28;20109;-50
2023/05/22 09:33:29;;;;;;;57.50;14.25;;;;;;;12.17;90.08;101174.63;4992151;28;20022;-49
2023/05/22 09:35:57;;;;;;;48.17;12.77;;;;;;;12.15;89.84;101172.94;4991792;28;20058;-49
2023/05/22 09:38:27;;;;;;;73.32;13.77;;;;;;;12.18;89.41;101171.72;4992603;28;20030;-50
2023/05/22 09:40:54;;;;;;;64.93;14.80;;;;;;;12.13;89.97;101166.16;4992059;28;20018;-48
2023/05/22 09:43:25;;;;;;;70.40;14.20;;;;;;;12.12;90.09;101164.50;4991987;28;20034;-47
2023/05/22 09:46:02;;;;;;;57.95;15.55;;;;;;;12.24;90.05;101170.88;4992984;28;20606;-47
2023/05/22 09:48:35;;;;;;;54.83;13.55;;;;;;;12.31;89.48;101160.13;4992202;28;20042;-47
2023/05/22 09:51:02;;;;;;;58.28;13.98;;;;;;;12.26;90.07;101168.81;4992247;28;20065;-47
2023/05/22 09:53:31;;;;;;;72.00;14.85;;;;;;;12.24;89.96;101159.34;4992095;28;20105;-50
2023/05/22 09:55:59;;;;;;;56.83;15.20;;;;;;;12.38;89.14;101161.78;4991456;28;20034;-49
2023/05/22 09:58:29;;;;;;;59.38;14.30;;;;;;;12.27;90.03;101158.91;4991515;28;20036;-48
2023/05/22 10:00:56;;;;;;;81.88;16.20;;;;;;;12.26;89.93;101154.56;4991819;28;20034;-49
2023/05/22 10:03:25;;;;;;;59.35;14.57;;;;;;;12.38;89.21;101151.06;4997794;28;20027;-47
2023/05/22 10:05:54;;;;;;;53.20;14.70;;;;;;;12.34;89.68;101149.81;4991091;28;20031;-48
2023/05/22 10:08:27;;;;;;;58.15;15.25;;;;;;;12.29;90.29;101148.78;4991789;28;20386;-46
2023/05/22 10:10:53;;;;;;;65.03;15.15;;;;;;;12.23;90.15;101149.63;4993940;28;20026;-46
2023/05/22 10:13:20;;;;;;;65.65;14.07;;;;;;;12.30;89.77;101148.56;4995602;28;20510;-48
2023/05/22 10:15:48;;;;;;;52.50;13.93;;;;;;;12.29;89.67;101143.44;4995096;28;20105;-45
2023/05/22 10:18:16;;;;;;;63.33;14.55;;;;;;;12.32;89.74;101146.50;5011001;28;20513;-46
2023/05/22 10:20:43;;;;;;;51.30;13.88;;;;;;;12.37;89.17;101148.56;5001519;28;20470;-46
2023/05/22 10:23:10;;;;;;;56.60;13.35;;;;;;;12.25;89.40;101143.00;4995367;28;20034;-45
2023/05/22 10:25:40;;;;;;;58.75;15.15;;;;;;;12.34;88.87;101139.09;4994947;28;20022;-47
2023/05/22 10:28:07;;;;;;;53.53;11.80;;;;;;;12.45;88.02;101139.47;4999615;28;20046;-47
2023/05/22 10:30:37;;;;;;;72.28;15.50;;;;;;;12.29;88.60;101125.47;5004148;28;20117;-45
2023/05/22 10:33:12;;;;;;;50.35;13.25;;;;;;;12.34;89.00;101128.34;5014901;28;20041;-47
2023/05/22 10:35:47;;;;;;;63.22;13.80;;;;;;;12.35;88.82;101121.94;4996900;28;20478;-45
2023/05/22 10:38:39;;;;;;;47.47;12.85;;;;;;;12.41;88.69;101122.94;4995994;28;20387;-46
2023/05/22 10:41:06;;;;;;;55.15;13.05;;;;;;;12.29;89.35;101121.97;4969734;28;20435;-46
2023/05/22 10:43:40;;;;;;;60.13;13.50;;;;;;;12.22;90.18;101113.94;4995023;28;20026;-46
2023/05/22 10:46:08;;;;;;;48.92;12.32;;;;;;;12.32;89.49;101114.28;4997742;28;20164;-46
2023/05/22 10:48:45;;;;;;;49.67;13.40;;;;;;;12.37;89.12;101119.84;5014180;28;20033;-45
2023/05/22 10:51:13;;;;;;;56.45;13.90;;;;;;;12.34;89.71;101103.38;5014411;28;20510;-47
2023/05/22 10:53:41;;;;;;;73.53;15.27;;;;;;;12.31;90.38;101114.50;5009055;28;20042;-48
2023/05/22 10:56:15;;;;;;;59.83;14.60;;;;;;;12.37;89.85;101108.28;4994423;28;20029;-46
2023/05/22 10:58:55;;;;;;;51.70;11.98;;;;;;;12.47;90.02;101110.53;5001702;28;20033;-46
2023/05/22 11:01:25;;;;;;;55.15;12.80;;;;;;;12.55;89.71;101110.31;5014020;28;20040;-46
2023/05/22 11:04:07;;;;;;;49.42;13.43;;;;;;;12.56;89.40;101110.09;5014275;28;20026;-47
2023/05/22 11:06:42;;;;;;;49.17;12.85;;;;;;;12.46;90.17;101114.25;5013963;28;20120;-46
2023/05/22 11:09:20;;;;;;;55.85;14.38;;;;;;;12.41;90.28;101106.84;5014110;28;20038;-47
2023/05/22 11:12:07;;;;;;;47.15;12.10;;;;;;;12.63;88.90;101104.69;5013088;28;20034;-48
2023/05/22 11:14:35;;;;;;;62.25;14.20;;;;;;;12.55;89.13;101111.16;5013421;28;20481;-48
2023/05/22 11:17:02;;;;;;;58.85;13.40;;;;;;;12.64;88.77;101107.16;5012780;28;20041;-46